sensor_id;sensor_type;location;lat;lon;timestamp;P1;durP1;ratioP1;P2;durP2;ratioP2
28772;SDS011;15925;51.222;5.678;2022-09-03T00:02:44;0.82;;;0.70;;
28772;SDS011;15925;51.222;5.678;2022-09-03T00:05:21;3.30;;;1.10;;
28772;SDS011;15925;51.222;5.678;2022-09-03T00:08:18;1.35;;;1.25;;
28772;SDS011;15925;51.222;5.678;2022-09-03T00:13:40;6.55;;;1.60;;
28772;SDS011;15925;51.222;5.678;2022-09-03T00:16:15;2.83;;;1.02;;
28772;SDS011;15925;51.222;5.678;2022-09-03T00:18:49;2.63;;;1.10;;
28772;SDS011;15925;51.222;5.678;2022-09-03T00:24:13;1.75;;;1.10;;
28772;SDS011;15925;51.222;5.678;2022-09-03T00:26:46;3.53;;;1.10;;
28772;SDS011;15925;51.222;5.678;2022-09-03T00:29:28;1.13;;;1.02;;
28772;SDS011;15925;51.222;5.678;2022-09-03T00:31:57;3.10;;;1.27;;
28772;SDS011;15925;51.222;5.678;2022-09-03T00:36:55;7.25;;;0.93;;
28772;SDS011;15925;51.222;5.678;2022-09-03T00:39:23;1.33;;;0.95;;
28772;SDS011;15925;51.222;5.678;2022-09-03T00:53:56;1.07;;;0.83;;
28772;SDS011;15925;51.222;5.678;2022-09-03T01:02:30;2.33;;;1.02;;
28772;SDS011;15925;51.222;5.678;2022-09-03T01:10:08;10.15;;;1.02;;
28772;SDS011;15925;51.222;5.678;2022-09-03T01:13:00;1.65;;;1.35;;
28772;SDS011;15925;51.222;5.678;2022-09-03T01:18:36;3.92;;;1.50;;
28772;SDS011;15925;51.222;5.678;2022-09-03T01:21:30;1.52;;;0.90;;
28772;SDS011;15925;51.222;5.678;2022-09-03T01:29:29;2.13;;;1.25;;
28772;SDS011;15925;51.222;5.678;2022-09-03T01:32:18;1.80;;;1.00;;
28772;SDS011;15925;51.222;5.678;2022-09-03T01:34:52;5.05;;;1.23;;
28772;SDS011;15925;51.222;5.678;2022-09-03T01:58:43;5.72;;;1.10;;
28772;SDS011;15925;51.222;5.678;2022-09-03T02:01:18;1.85;;;0.93;;
28772;SDS011;15925;51.222;5.678;2022-09-03T02:03:51;4.30;;;1.20;;
28772;SDS011;15925;51.222;5.678;2022-09-03T02:06:27;0.90;;;0.80;;
28772;SDS011;15925;51.222;5.678;2022-09-03T02:08:57;3.85;;;1.55;;
28772;SDS011;15925;51.222;5.678;2022-09-03T02:11:23;1.20;;;0.80;;
28772;SDS011;15925;51.222;5.678;2022-09-03T02:13:50;1.25;;;1.15;;
28772;SDS011;15925;51.222;5.678;2022-09-03T02:16:21;2.67;;;1.05;;
28772;SDS011;15925;51.222;5.678;2022-09-03T02:18:56;1.08;;;0.95;;
28772;SDS011;15925;51.222;5.678;2022-09-03T02:21:26;5.82;;;1.50;;
28772;SDS011;15925;51.222;5.678;2022-09-03T02:23:56;2.08;;;1.10;;
28772;SDS011;15925;51.222;5.678;2022-09-03T02:26:23;16.02;;;1.23;;
28772;SDS011;15925;51.222;5.678;2022-09-03T02:28:49;6.65;;;1.10;;
28772;SDS011;15925;51.222;5.678;2022-09-03T02:31:16;9.13;;;1.85;;
28772;SDS011;15925;51.222;5.678;2022-09-03T02:33:43;4.10;;;1.47;;
28772;SDS011;15925;51.222;5.678;2022-09-03T02:36:11;1.67;;;1.17;;
28772;SDS011;15925;51.222;5.678;2022-09-03T02:38:42;1.42;;;0.90;;
28772;SDS011;15925;51.222;5.678;2022-09-03T02:41:08;1.98;;;1.20;;
28772;SDS011;15925;51.222;5.678;2022-09-03T02:46:38;4.28;;;1.55;;
28772;SDS011;15925;51.222;5.678;2022-09-03T02:49:17;4.72;;;1.63;;
28772;SDS011;15925;51.222;5.678;2022-09-03T02:51:43;1.88;;;1.10;;
28772;SDS011;15925;51.222;5.678;2022-09-03T02:54:09;4.17;;;1.00;;
28772;SDS011;15925;51.222;5.678;2022-09-03T02:56:36;1.98;;;1.35;;
28772;SDS011;15925;51.222;5.678;2022-09-03T02:59:03;0.75;;;0.70;;
28772;SDS011;15925;51.222;5.678;2022-09-03T03:01:30;1.73;;;1.17;;
28772;SDS011;15925;51.222;5.678;2022-09-03T03:03:56;2.88;;;1.38;;
28772;SDS011;15925;51.222;5.678;2022-09-03T03:06:21;3.00;;;1.38;;
28772;SDS011;15925;51.222;5.678;2022-09-03T03:08:48;0.98;;;0.90;;
28772;SDS011;15925;51.222;5.678;2022-09-03T03:11:15;4.82;;;1.63;;
28772;SDS011;15925;51.222;5.678;2022-09-03T03:13:43;2.03;;;1.30;;
28772;SDS011;15925;51.222;5.678;2022-09-03T03:16:12;3.17;;;1.00;;
28772;SDS011;15925;51.222;5.678;2022-09-03T03:18:39;6.38;;;1.20;;
28772;SDS011;15925;51.222;5.678;2022-09-03T03:21:07;14.10;;;1.58;;
28772;SDS011;15925;51.222;5.678;2022-09-03T03:23:34;4.53;;;1.13;;
28772;SDS011;15925;51.222;5.678;2022-09-03T03:28:30;2.85;;;1.25;;
28772;SDS011;15925;51.222;5.678;2022-09-03T03:30:58;4.03;;;1.23;;
28772;SDS011;15925;51.222;5.678;2022-09-03T03:33:30;3.55;;;1.25;;
28772;SDS011;15925;51.222;5.678;2022-09-03T03:35:55;4.07;;;1.40;;
28772;SDS011;15925;51.222;5.678;2022-09-03T03:38:21;3.57;;;0.97;;
28772;SDS011;15925;51.222;5.678;2022-09-03T03:40:47;10.13;;;1.20;;
28772;SDS011;15925;51.222;5.678;2022-09-03T03:43:13;8.13;;;0.90;;
28772;SDS011;15925;51.222;5.678;2022-09-03T03:45:38;1.23;;;1.10;;
28772;SDS011;15925;51.222;5.678;2022-09-03T03:48:04;2.73;;;1.53;;
28772;SDS011;15925;51.222;5.678;2022-09-03T03:50:30;2.70;;;1.37;;
28772;SDS011;15925;51.222;5.678;2022-09-03T03:52:59;5.73;;;1.60;;
28772;SDS011;15925;51.222;5.678;2022-09-03T03:55:25;2.40;;;1.38;;
28772;SDS011;15925;51.222;5.678;2022-09-03T03:57:51;19.43;;;1.63;;
28772;SDS011;15925;51.222;5.678;2022-09-03T04:00:16;4.93;;;1.27;;
28772;SDS011;15925;51.222;5.678;2022-09-03T04:02:42;1.50;;;1.23;;
28772;SDS011;15925;51.222;5.678;2022-09-03T04:05:08;2.00;;;1.20;;
28772;SDS011;15925;51.222;5.678;2022-09-03T04:10:47;6.75;;;1.40;;
28772;SDS011;15925;51.222;5.678;2022-09-03T04:13:13;2.40;;;1.05;;
28772;SDS011;15925;51.222;5.678;2022-09-03T04:15:39;2.30;;;0.93;;
28772;SDS011;15925;51.222;5.678;2022-09-03T04:18:06;1.50;;;1.15;;
28772;SDS011;15925;51.222;5.678;2022-09-03T04:20:32;2.42;;;1.10;;
28772;SDS011;15925;51.222;5.678;2022-09-03T04:23:00;1.35;;;1.00;;
28772;SDS011;15925;51.222;5.678;2022-09-03T04:25:26;4.47;;;1.52;;
28772;SDS011;15925;51.222;5.678;2022-09-03T04:27:52;11.00;;;1.47;;
28772;SDS011;15925;51.222;5.678;2022-09-03T04:30:18;1.83;;;1.27;;
28772;SDS011;15925;51.222;5.678;2022-09-03T04:32:44;1.98;;;1.40;;
28772;SDS011;15925;51.222;5.678;2022-09-03T04:35:23;4.78;;;1.17;;
28772;SDS011;15925;51.222;5.678;2022-09-03T04:37:50;2.08;;;1.00;;
28772;SDS011;15925;51.222;5.678;2022-09-03T04:40:19;5.38;;;1.75;;
28772;SDS011;15925;51.222;5.678;2022-09-03T04:42:45;3.72;;;1.25;;
28772;SDS011;15925;51.222;5.678;2022-09-03T04:45:11;2.40;;;0.90;;
28772;SDS011;15925;51.222;5.678;2022-09-03T04:47:39;2.00;;;1.10;;
28772;SDS011;15925;51.222;5.678;2022-09-03T04:50:06;1.90;;;1.33;;
28772;SDS011;15925;51.222;5.678;2022-09-03T04:52:32;6.00;;;1.48;;
28772;SDS011;15925;51.222;5.678;2022-09-03T04:54:58;2.10;;;1.20;;
28772;SDS011;15925;51.222;5.678;2022-09-03T04:57:24;13.00;;;1.92;;
28772;SDS011;15925;51.222;5.678;2022-09-03T04:59:50;4.77;;;0.97;;
28772;SDS011;15925;51.222;5.678;2022-09-03T05:02:16;13.60;;;1.43;;
28772;SDS011;15925;51.222;5.678;2022-09-03T05:04:42;2.67;;;1.70;;
28772;SDS011;15925;51.222;5.678;2022-09-03T05:07:07;2.13;;;1.03;;
28772;SDS011;15925;51.222;5.678;2022-09-03T05:09:34;2.90;;;1.23;;
28772;SDS011;15925;51.222;5.678;2022-09-03T05:11:59;7.37;;;1.73;;
28772;SDS011;15925;51.222;5.678;2022-09-03T05:14:25;3.13;;;1.40;;
28772;SDS011;15925;51.222;5.678;2022-09-03T05:16:51;23.75;;;1.58;;
28772;SDS011;15925;51.222;5.678;2022-09-03T05:19:17;5.47;;;1.43;;
28772;SDS011;15925;51.222;5.678;2022-09-03T05:21:43;4.30;;;1.33;;
28772;SDS011;15925;51.222;5.678;2022-09-03T05:24:08;5.13;;;1.13;;
28772;SDS011;15925;51.222;5.678;2022-09-03T05:26:36;2.50;;;1.52;;
28772;SDS011;15925;51.222;5.678;2022-09-03T05:29:04;4.68;;;1.25;;
28772;SDS011;15925;51.222;5.678;2022-09-03T05:31:35;7.75;;;1.60;;
28772;SDS011;15925;51.222;5.678;2022-09-03T05:34:03;2.97;;;1.75;;
28772;SDS011;15925;51.222;5.678;2022-09-03T05:36:34;1.42;;;0.90;;
28772;SDS011;15925;51.222;5.678;2022-09-03T05:39:01;1.52;;;1.05;;
28772;SDS011;15925;51.222;5.678;2022-09-03T05:43:54;2.63;;;1.08;;
28772;SDS011;15925;51.222;5.678;2022-09-03T05:46:23;7.07;;;1.30;;
28772;SDS011;15925;51.222;5.678;2022-09-03T05:48:56;1.05;;;0.88;;
28772;SDS011;15925;51.222;5.678;2022-09-03T05:51:23;1.75;;;1.00;;
28772;SDS011;15925;51.222;5.678;2022-09-03T05:53:49;4.28;;;1.55;;
28772;SDS011;15925;51.222;5.678;2022-09-03T05:56:18;2.70;;;1.58;;
28772;SDS011;15925;51.222;5.678;2022-09-03T05:58:46;0.70;;;0.70;;
28772;SDS011;15925;51.222;5.678;2022-09-03T06:03:45;12.55;;;1.30;;
28772;SDS011;15925;51.222;5.678;2022-09-03T06:06:13;2.15;;;1.40;;
28772;SDS011;15925;51.222;5.678;2022-09-03T06:08:41;7.75;;;0.98;;
28772;SDS011;15925;51.222;5.678;2022-09-03T06:11:09;1.63;;;1.20;;
28772;SDS011;15925;51.222;5.678;2022-09-03T06:13:35;5.80;;;1.17;;
28772;SDS011;15925;51.222;5.678;2022-09-03T06:16:05;2.38;;;0.85;;
28772;SDS011;15925;51.222;5.678;2022-09-03T06:18:31;3.67;;;1.23;;
28772;SDS011;15925;51.222;5.678;2022-09-03T06:20:58;6.50;;;1.60;;
28772;SDS011;15925;51.222;5.678;2022-09-03T06:23:26;4.18;;;1.20;;
28772;SDS011;15925;51.222;5.678;2022-09-03T06:26:09;2.50;;;1.30;;
28772;SDS011;15925;51.222;5.678;2022-09-03T06:28:42;8.60;;;1.38;;
28772;SDS011;15925;51.222;5.678;2022-09-03T06:31:09;3.97;;;0.82;;
28772;SDS011;15925;51.222;5.678;2022-09-03T06:33:36;3.47;;;1.30;;
28772;SDS011;15925;51.222;5.678;2022-09-03T06:36:04;11.20;;;2.33;;
28772;SDS011;15925;51.222;5.678;2022-09-03T06:38:32;6.38;;;1.60;;
28772;SDS011;15925;51.222;5.678;2022-09-03T06:43:35;1.73;;;0.93;;
28772;SDS011;15925;51.222;5.678;2022-09-03T06:46:04;6.78;;;1.17;;
28772;SDS011;15925;51.222;5.678;2022-09-03T06:48:38;5.95;;;0.93;;
28772;SDS011;15925;51.222;5.678;2022-09-03T06:53:33;2.58;;;1.08;;
28772;SDS011;15925;51.222;5.678;2022-09-03T06:56:04;8.00;;;1.33;;
28772;SDS011;15925;51.222;5.678;2022-09-03T06:58:33;1.60;;;0.80;;
28772;SDS011;15925;51.222;5.678;2022-09-03T07:01:18;4.00;;;1.33;;
28772;SDS011;15925;51.222;5.678;2022-09-03T07:03:46;4.22;;;1.35;;
28772;SDS011;15925;51.222;5.678;2022-09-03T07:06:17;11.70;;;0.85;;
28772;SDS011;15925;51.222;5.678;2022-09-03T07:08:44;3.42;;;1.23;;
28772;SDS011;15925;51.222;5.678;2022-09-03T07:11:20;4.25;;;0.90;;
28772;SDS011;15925;51.222;5.678;2022-09-03T07:13:50;3.40;;;0.80;;
28772;SDS011;15925;51.222;5.678;2022-09-03T07:16:24;10.93;;;1.40;;
28772;SDS011;15925;51.222;5.678;2022-09-03T07:19:00;2.90;;;0.73;;
28772;SDS011;15925;51.222;5.678;2022-09-03T07:21:29;11.70;;;0.90;;
28772;SDS011;15925;51.222;5.678;2022-09-03T07:23:56;1.75;;;0.77;;
28772;SDS011;15925;51.222;5.678;2022-09-03T07:26:23;1.25;;;0.77;;
28772;SDS011;15925;51.222;5.678;2022-09-03T07:28:50;8.18;;;1.40;;
28772;SDS011;15925;51.222;5.678;2022-09-03T07:31:19;2.92;;;1.02;;
28772;SDS011;15925;51.222;5.678;2022-09-03T07:33:53;16.55;;;1.23;;
28772;SDS011;15925;51.222;5.678;2022-09-03T07:36:20;4.38;;;0.90;;
28772;SDS011;15925;51.222;5.678;2022-09-03T07:38:47;2.60;;;0.95;;
28772;SDS011;15925;51.222;5.678;2022-09-03T07:41:14;7.90;;;1.15;;
28772;SDS011;15925;51.222;5.678;2022-09-03T07:43:40;8.02;;;1.33;;
28772;SDS011;15925;51.222;5.678;2022-09-03T07:46:10;5.03;;;0.80;;
28772;SDS011;15925;51.222;5.678;2022-09-03T07:48:38;7.45;;;1.40;;
28772;SDS011;15925;51.222;5.678;2022-09-03T07:51:07;9.20;;;1.48;;
28772;SDS011;15925;51.222;5.678;2022-09-03T07:56:01;0.90;;;0.80;;
28772;SDS011;15925;51.222;5.678;2022-09-03T07:58:28;14.15;;;0.93;;
28772;SDS011;15925;51.222;5.678;2022-09-03T08:00:55;11.48;;;1.13;;
28772;SDS011;15925;51.222;5.678;2022-09-03T08:03:21;1.02;;;0.82;;
28772;SDS011;15925;51.222;5.678;2022-09-03T08:05:47;7.60;;;0.77;;
28772;SDS011;15925;51.222;5.678;2022-09-03T08:08:14;4.03;;;1.05;;
28772;SDS011;15925;51.222;5.678;2022-09-03T08:10:42;2.35;;;1.55;;
28772;SDS011;15925;51.222;5.678;2022-09-03T08:13:07;13.15;;;1.15;;
28772;SDS011;15925;51.222;5.678;2022-09-03T08:15:35;5.10;;;0.60;;
28772;SDS011;15925;51.222;5.678;2022-09-03T08:18:02;1.52;;;0.52;;
28772;SDS011;15925;51.222;5.678;2022-09-03T08:20:28;1.30;;;0.80;;
28772;SDS011;15925;51.222;5.678;2022-09-03T08:23:00;5.23;;;0.70;;
28772;SDS011;15925;51.222;5.678;2022-09-03T08:25:27;1.30;;;0.70;;
28772;SDS011;15925;51.222;5.678;2022-09-03T08:27:56;1.88;;;0.75;;
28772;SDS011;15925;51.222;5.678;2022-09-03T08:30:22;3.20;;;0.73;;
28772;SDS011;15925;51.222;5.678;2022-09-03T08:32:49;6.90;;;1.23;;
28772;SDS011;15925;51.222;5.678;2022-09-03T08:35:15;3.38;;;0.88;;
28772;SDS011;15925;51.222;5.678;2022-09-03T08:37:41;4.17;;;0.77;;
28772;SDS011;15925;51.222;5.678;2022-09-03T08:40:07;11.83;;;0.70;;
28772;SDS011;15925;51.222;5.678;2022-09-03T08:45:18;2.05;;;0.75;;
28772;SDS011;15925;51.222;5.678;2022-09-03T08:48:04;1.30;;;0.50;;
28772;SDS011;15925;51.222;5.678;2022-09-03T08:50:47;1.65;;;0.80;;
28772;SDS011;15925;51.222;5.678;2022-09-03T08:53:21;3.63;;;0.65;;
28772;SDS011;15925;51.222;5.678;2022-09-03T08:55:55;0.68;;;0.63;;
28772;SDS011;15925;51.222;5.678;2022-09-03T08:58:27;0.98;;;0.70;;
28772;SDS011;15925;51.222;5.678;2022-09-03T09:14:04;4.78;;;0.77;;
28772;SDS011;15925;51.222;5.678;2022-09-03T09:19:23;3.28;;;0.77;;
28772;SDS011;15925;51.222;5.678;2022-09-03T09:22:08;1.45;;;0.70;;
28772;SDS011;15925;51.222;5.678;2022-09-03T09:24:48;1.35;;;0.73;;
28772;SDS011;15925;51.222;5.678;2022-09-03T09:27:17;1.42;;;0.55;;
28772;SDS011;15925;51.222;5.678;2022-09-03T09:29:47;1.58;;;0.90;;
28772;SDS011;15925;51.222;5.678;2022-09-03T09:32:15;0.60;;;0.40;;
28772;SDS011;15925;51.222;5.678;2022-09-03T09:34:43;4.35;;;0.88;;
28772;SDS011;15925;51.222;5.678;2022-09-03T09:37:11;4.22;;;0.63;;
28772;SDS011;15925;51.222;5.678;2022-09-03T09:39:39;1.42;;;0.77;;
28772;SDS011;15925;51.222;5.678;2022-09-03T09:42:07;0.80;;;0.63;;
28772;SDS011;15925;51.222;5.678;2022-09-03T09:44:37;11.25;;;0.93;;
28772;SDS011;15925;51.222;5.678;2022-09-03T09:47:05;1.15;;;0.50;;
28772;SDS011;15925;51.222;5.678;2022-09-03T09:52:11;0.50;;;0.50;;
28772;SDS011;15925;51.222;5.678;2022-09-03T09:54:39;1.30;;;0.90;;
28772;SDS011;15925;51.222;5.678;2022-09-03T09:57:13;2.22;;;0.70;;
28772;SDS011;15925;51.222;5.678;2022-09-03T09:59:42;1.00;;;0.65;;
28772;SDS011;15925;51.222;5.678;2022-09-03T10:02:22;12.23;;;0.90;;
28772;SDS011;15925;51.222;5.678;2022-09-03T10:04:54;4.93;;;0.90;;
28772;SDS011;15925;51.222;5.678;2022-09-03T10:07:25;8.77;;;0.70;;
28772;SDS011;15925;51.222;5.678;2022-09-03T10:10:02;0.63;;;0.50;;
28772;SDS011;15925;51.222;5.678;2022-09-03T10:12:38;1.05;;;0.63;;
28772;SDS011;15925;51.222;5.678;2022-09-03T10:15:11;15.45;;;1.15;;
28772;SDS011;15925;51.222;5.678;2022-09-03T10:20:20;6.50;;;0.85;;
28772;SDS011;15925;51.222;5.678;2022-09-03T10:25:35;1.40;;;0.77;;
28772;SDS011;15925;51.222;5.678;2022-09-03T10:28:03;4.18;;;0.88;;
28772;SDS011;15925;51.222;5.678;2022-09-03T10:30:35;5.28;;;0.80;;
28772;SDS011;15925;51.222;5.678;2022-09-03T10:33:31;3.58;;;0.80;;
28772;SDS011;15925;51.222;5.678;2022-09-03T10:36:10;3.92;;;0.65;;
28772;SDS011;15925;51.222;5.678;2022-09-03T10:38:49;2.90;;;0.82;;
28772;SDS011;15925;51.222;5.678;2022-09-03T10:52:18;3.58;;;1.33;;
28772;SDS011;15925;51.222;5.678;2022-09-03T11:01:51;0.40;;;0.40;;
28772;SDS011;15925;51.222;5.678;2022-09-03T11:05:35;3.45;;;0.98;;
28772;SDS011;15925;51.222;5.678;2022-09-03T11:07:45;4.28;;;1.23;;
28772;SDS011;15925;51.222;5.678;2022-09-03T11:10:33;2.72;;;1.80;;
28772;SDS011;15925;51.222;5.678;2022-09-03T11:13:07;13.43;;;0.88;;
28772;SDS011;15925;51.222;5.678;2022-09-03T11:20:38;8.75;;;0.90;;
28772;SDS011;15925;51.222;5.678;2022-09-03T11:23:06;3.38;;;0.88;;
28772;SDS011;15925;51.222;5.678;2022-09-03T11:25:40;4.57;;;0.98;;
28772;SDS011;15925;51.222;5.678;2022-09-03T11:33:31;2.65;;;1.30;;
28772;SDS011;15925;51.222;5.678;2022-09-03T11:36:00;2.70;;;1.00;;
28772;SDS011;15925;51.222;5.678;2022-09-03T11:38:30;3.03;;;1.20;;
28772;SDS011;15925;51.222;5.678;2022-09-03T11:41:02;2.58;;;1.00;;
28772;SDS011;15925;51.222;5.678;2022-09-03T11:44:10;1.02;;;0.90;;
28772;SDS011;15925;51.222;5.678;2022-09-03T11:46:57;2.85;;;0.90;;
28772;SDS011;15925;51.222;5.678;2022-09-03T11:49:27;1.33;;;1.23;;
28772;SDS011;15925;51.222;5.678;2022-09-03T11:52:02;2.08;;;0.70;;
28772;SDS011;15925;51.222;5.678;2022-09-03T11:54:42;3.47;;;1.08;;
28772;SDS011;15925;51.222;5.678;2022-09-03T11:57:12;6.82;;;0.90;;
28772;SDS011;15925;51.222;5.678;2022-09-03T11:59:41;1.60;;;1.10;;
28772;SDS011;15925;51.222;5.678;2022-09-03T12:10:38;1.48;;;1.00;;
28772;SDS011;15925;51.222;5.678;2022-09-03T12:18:53;2.20;;;1.10;;
28772;SDS011;15925;51.222;5.678;2022-09-03T12:21:24;2.42;;;1.25;;
28772;SDS011;15925;51.222;5.678;2022-09-03T12:23:50;3.08;;;0.82;;
28772;SDS011;15925;51.222;5.678;2022-09-03T12:26:25;4.55;;;1.42;;
28772;SDS011;15925;51.222;5.678;2022-09-03T12:28:57;6.68;;;1.10;;
28772;SDS011;15925;51.222;5.678;2022-09-03T12:31:28;3.33;;;1.00;;
28772;SDS011;15925;51.222;5.678;2022-09-03T12:36:46;0.95;;;0.88;;
28772;SDS011;15925;51.222;5.678;2022-09-03T12:39:48;1.75;;;0.98;;
28772;SDS011;15925;51.222;5.678;2022-09-03T12:42:16;2.58;;;0.98;;
28772;SDS011;15925;51.222;5.678;2022-09-03T12:44:49;2.78;;;1.30;;
28772;SDS011;15925;51.222;5.678;2022-09-03T12:47:15;8.13;;;1.02;;
28772;SDS011;15925;51.222;5.678;2022-09-03T12:49:44;0.93;;;0.85;;
28772;SDS011;15925;51.222;5.678;2022-09-03T13:00:25;1.63;;;0.85;;
28772;SDS011;15925;51.222;5.678;2022-09-03T13:05:25;1.98;;;1.05;;
28772;SDS011;15925;51.222;5.678;2022-09-03T13:08:07;1.48;;;1.20;;
28772;SDS011;15925;51.222;5.678;2022-09-03T13:10:38;4.72;;;0.90;;
28772;SDS011;15925;51.222;5.678;2022-09-03T13:13:18;0.73;;;0.70;;
28772;SDS011;15925;51.222;5.678;2022-09-03T13:16:10;2.45;;;0.93;;
28772;SDS011;15925;51.222;5.678;2022-09-03T13:21:35;1.50;;;1.05;;
28772;SDS011;15925;51.222;5.678;2022-09-03T13:27:00;3.63;;;1.10;;
28772;SDS011;15925;51.222;5.678;2022-09-03T13:32:40;1.35;;;1.00;;
28772;SDS011;15925;51.222;5.678;2022-09-03T13:40:44;2.10;;;0.93;;
28772;SDS011;15925;51.222;5.678;2022-09-03T13:43:33;1.75;;;1.27;;
28772;SDS011;15925;51.222;5.678;2022-09-03T13:46:08;5.13;;;1.20;;
28772;SDS011;15925;51.222;5.678;2022-09-03T13:48:58;0.80;;;0.80;;
28772;SDS011;15925;51.222;5.678;2022-09-03T13:51:57;2.08;;;1.10;;
28772;SDS011;15925;51.222;5.678;2022-09-03T13:54:30;1.48;;;0.73;;
28772;SDS011;15925;51.222;5.678;2022-09-03T14:14:01;2.33;;;1.30;;
28772;SDS011;15925;51.222;5.678;2022-09-03T14:19:04;2.95;;;1.08;;
28772;SDS011;15925;51.222;5.678;2022-09-03T14:27:04;1.90;;;1.10;;
28772;SDS011;15925;51.222;5.678;2022-09-03T14:29:32;0.98;;;0.90;;
28772;SDS011;15925;51.222;5.678;2022-09-03T14:32:03;3.60;;;1.15;;
28772;SDS011;15925;51.222;5.678;2022-09-03T14:44:51;1.20;;;0.93;;
28772;SDS011;15925;51.222;5.678;2022-09-03T15:00:52;2.10;;;0.95;;
28772;SDS011;15925;51.222;5.678;2022-09-03T15:03:41;1.48;;;1.00;;
28772;SDS011;15925;51.222;5.678;2022-09-03T15:09:10;2.60;;;1.20;;
28772;SDS011;15925;51.222;5.678;2022-09-03T15:11:47;1.10;;;0.95;;
28772;SDS011;15925;51.222;5.678;2022-09-03T15:14:38;3.58;;;0.75;;
28772;SDS011;15925;51.222;5.678;2022-09-03T15:23:12;1.13;;;0.80;;
28772;SDS011;15925;51.222;5.678;2022-09-03T15:36:48;2.00;;;1.20;;
28772;SDS011;15925;51.222;5.678;2022-09-03T15:39:21;1.52;;;0.95;;
28772;SDS011;15925;51.222;5.678;2022-09-03T15:41:55;2.05;;;1.02;;
28772;SDS011;15925;51.222;5.678;2022-09-03T15:44:24;1.85;;;0.70;;
28772;SDS011;15925;51.222;5.678;2022-09-03T15:46:59;9.90;;;1.08;;
28772;SDS011;15925;51.222;5.678;2022-09-03T15:49:44;7.60;;;1.05;;
28772;SDS011;15925;51.222;5.678;2022-09-03T15:55:09;3.60;;;1.23;;
28772;SDS011;15925;51.222;5.678;2022-09-03T15:57:40;2.10;;;1.15;;
28772;SDS011;15925;51.222;5.678;2022-09-03T16:00:29;4.47;;;1.55;;
28772;SDS011;15925;51.222;5.678;2022-09-03T16:03:00;7.75;;;0.90;;
28772;SDS011;15925;51.222;5.678;2022-09-03T16:05:45;3.95;;;1.10;;
28772;SDS011;15925;51.222;5.678;2022-09-03T16:08:33;1.25;;;1.00;;
28772;SDS011;15925;51.222;5.678;2022-09-03T16:16:51;7.97;;;0.82;;
28772;SDS011;15925;51.222;5.678;2022-09-03T16:19:38;1.02;;;0.90;;
28772;SDS011;15925;51.222;5.678;2022-09-03T16:22:21;4.35;;;1.15;;
28772;SDS011;15925;51.222;5.678;2022-09-03T16:25:01;1.20;;;0.70;;
28772;SDS011;15925;51.222;5.678;2022-09-03T16:27:49;1.35;;;0.65;;
28772;SDS011;15925;51.222;5.678;2022-09-03T16:35:47;1.00;;;0.90;;
28772;SDS011;15925;51.222;5.678;2022-09-03T16:43:45;8.20;;;0.98;;
28772;SDS011;15925;51.222;5.678;2022-09-03T16:49:02;1.00;;;0.70;;
28772;SDS011;15925;51.222;5.678;2022-09-03T17:00:08;1.63;;;0.82;;
28772;SDS011;15925;51.222;5.678;2022-09-03T17:02:47;8.23;;;1.13;;
28772;SDS011;15925;51.222;5.678;2022-09-03T17:05:37;2.20;;;1.40;;
28772;SDS011;15925;51.222;5.678;2022-09-03T17:11:11;5.38;;;1.10;;
28772;SDS011;15925;51.222;5.678;2022-09-03T17:19:31;2.67;;;1.20;;
28772;SDS011;15925;51.222;5.678;2022-09-03T17:25:03;1.38;;;1.13;;
28772;SDS011;15925;51.222;5.678;2022-09-03T17:27:46;7.47;;;0.90;;
28772;SDS011;15925;51.222;5.678;2022-09-03T17:36:07;12.27;;;1.15;;
28772;SDS011;15925;51.222;5.678;2022-09-03T17:42:04;8.40;;;1.08;;
28772;SDS011;15925;51.222;5.678;2022-09-03T17:49:49;3.75;;;1.20;;
28772;SDS011;15925;51.222;5.678;2022-09-03T17:55:20;2.10;;;1.10;;
28772;SDS011;15925;51.222;5.678;2022-09-03T17:58:00;4.30;;;1.23;;
28772;SDS011;15925;51.222;5.678;2022-09-03T18:00:54;13.38;;;1.42;;
28772;SDS011;15925;51.222;5.678;2022-09-03T18:03:53;3.10;;;1.40;;
28772;SDS011;15925;51.222;5.678;2022-09-03T18:09:23;7.57;;;1.35;;
28772;SDS011;15925;51.222;5.678;2022-09-03T18:12:06;20.55;;;1.38;;
28772;SDS011;15925;51.222;5.678;2022-09-03T18:14:50;1.63;;;1.10;;
28772;SDS011;15925;51.222;5.678;2022-09-03T18:17:30;1.95;;;1.02;;
28772;SDS011;15925;51.222;5.678;2022-09-03T18:20:11;6.05;;;1.20;;
28772;SDS011;15925;51.222;5.678;2022-09-03T18:23:08;2.47;;;1.50;;
28772;SDS011;15925;51.222;5.678;2022-09-03T18:26:06;1.95;;;1.38;;
28772;SDS011;15925;51.222;5.678;2022-09-03T18:29:04;8.88;;;1.50;;
28772;SDS011;15925;51.222;5.678;2022-09-03T18:31:55;1.27;;;1.00;;
28772;SDS011;15925;51.222;5.678;2022-09-03T18:34:39;1.60;;;1.10;;
28772;SDS011;15925;51.222;5.678;2022-09-03T18:37:25;7.55;;;1.13;;
28772;SDS011;15925;51.222;5.678;2022-09-03T18:40:17;17.40;;;1.63;;
28772;SDS011;15925;51.222;5.678;2022-09-03T18:43:27;2.55;;;1.35;;
28772;SDS011;15925;51.222;5.678;2022-09-03T18:53:13;2.47;;;1.42;;
28772;SDS011;15925;51.222;5.678;2022-09-03T18:55:45;15.80;;;1.63;;
28772;SDS011;15925;51.222;5.678;2022-09-03T18:58:43;23.98;;;2.35;;
28772;SDS011;15925;51.222;5.678;2022-09-03T19:01:39;9.30;;;1.70;;
28772;SDS011;15925;51.222;5.678;2022-09-03T19:07:48;1.30;;;1.20;;
28772;SDS011;15925;51.222;5.678;2022-09-03T19:13:46;0.88;;;0.75;;
28772;SDS011;15925;51.222;5.678;2022-09-03T19:25:12;12.27;;;1.98;;
28772;SDS011;15925;51.222;5.678;2022-09-03T19:37:07;21.33;;;1.80;;
28772;SDS011;15925;51.222;5.678;2022-09-03T19:40:15;7.60;;;2.53;;
28772;SDS011;15925;51.222;5.678;2022-09-03T19:44:04;9.73;;;1.85;;
28772;SDS011;15925;51.222;5.678;2022-09-03T19:47:39;4.18;;;1.90;;
28772;SDS011;15925;51.222;5.678;2022-09-03T19:50:37;5.90;;;1.88;;
28772;SDS011;15925;51.222;5.678;2022-09-03T19:53:26;6.32;;;1.70;;
28772;SDS011;15925;51.222;5.678;2022-09-03T19:56:19;4.55;;;1.52;;
28772;SDS011;15925;51.222;5.678;2022-09-03T19:59:11;6.45;;;0.90;;
28772;SDS011;15925;51.222;5.678;2022-09-03T20:02:00;2.60;;;1.35;;
28772;SDS011;15925;51.222;5.678;2022-09-03T20:04:46;3.22;;;1.08;;
28772;SDS011;15925;51.222;5.678;2022-09-03T20:07:39;10.55;;;1.33;;
28772;SDS011;15925;51.222;5.678;2022-09-03T20:10:23;11.63;;;1.58;;
28772;SDS011;15925;51.222;5.678;2022-09-03T20:13:13;4.60;;;1.80;;
28772;SDS011;15925;51.222;5.678;2022-09-03T20:18:43;1.65;;;1.40;;
28772;SDS011;15925;51.222;5.678;2022-09-03T20:24:20;9.82;;;2.42;;
28772;SDS011;15925;51.222;5.678;2022-09-03T20:43:51;13.50;;;2.40;;
28772;SDS011;15925;51.222;5.678;2022-09-03T20:52:15;7.47;;;2.90;;
28772;SDS011;15925;51.222;5.678;2022-09-03T20:57:35;17.20;;;2.78;;
28772;SDS011;15925;51.222;5.678;2022-09-03T21:00:13;17.52;;;2.35;;
28772;SDS011;15925;51.222;5.678;2022-09-03T21:02:47;7.95;;;2.47;;
28772;SDS011;15925;51.222;5.678;2022-09-03T21:05:31;16.63;;;2.65;;
28772;SDS011;15925;51.222;5.678;2022-09-03T21:08:05;3.38;;;2.70;;
28772;SDS011;15925;51.222;5.678;2022-09-03T21:16:11;9.25;;;2.58;;
28772;SDS011;15925;51.222;5.678;2022-09-03T21:21:49;8.63;;;3.65;;
28772;SDS011;15925;51.222;5.678;2022-09-03T21:24:28;6.03;;;3.13;;
28772;SDS011;15925;51.222;5.678;2022-09-03T21:27:00;4.15;;;2.97;;
28772;SDS011;15925;51.222;5.678;2022-09-03T21:29:38;15.18;;;3.08;;
28772;SDS011;15925;51.222;5.678;2022-09-03T21:34:42;7.88;;;3.42;;
28772;SDS011;15925;51.222;5.678;2022-09-03T21:37:36;11.80;;;3.08;;
28772;SDS011;15925;51.222;5.678;2022-09-03T21:40:03;6.88;;;2.55;;
28772;SDS011;15925;51.222;5.678;2022-09-03T21:47:58;8.50;;;3.10;;
28772;SDS011;15925;51.222;5.678;2022-09-03T21:53:39;5.35;;;3.05;;
28772;SDS011;15925;51.222;5.678;2022-09-03T21:56:14;15.38;;;2.63;;
28772;SDS011;15925;51.222;5.678;2022-09-03T21:59:25;7.13;;;2.28;;
28772;SDS011;15925;51.222;5.678;2022-09-03T22:02:18;7.05;;;2.33;;